createdAt,value
2023-09-10T00:01:01.775Z,82.89
2023-09-10T00:03:28.716Z,82.56
2023-09-10T00:05:55.930Z,81.37
2023-09-10T00:08:22.702Z,81.60
2023-09-10T00:10:49.729Z,80.40
2023-09-10T00:13:16.551Z,81.57
2023-09-10T00:15:43.249Z,81.50
2023-09-10T00:18:10.097Z,81.50
2023-09-10T00:20:39.730Z,81.58
2023-09-10T00:23:06.647Z,81.90
2023-09-10T00:25:33.463Z,81.89
2023-09-10T00:28:00.267Z,81.80
2023-09-10T00:30:30.293Z,81.54
2023-09-10T00:32:57.178Z,82.20
2023-09-10T00:35:23.914Z,82.20
2023-09-10T00:37:50.803Z,81.55
2023-09-10T00:40:17.564Z,81.04
2023-09-10T00:42:44.237Z,81.21
2023-09-10T00:45:15.633Z,81.76
2023-09-10T00:47:46.071Z,82.07
2023-09-10T00:50:14.928Z,81.78
2023-09-10T00:52:51.266Z,81.61
2023-09-10T00:55:19.845Z,82.46
2023-09-10T00:57:46.736Z,83.12
2023-09-10T01:00:14.536Z,83.30
2023-09-10T01:02:44.772Z,83.15
2023-09-10T01:05:13.015Z,83.01
2023-09-10T01:07:39.926Z,83.11
2023-09-10T01:10:07.895Z,82.84
2023-09-10T01:12:46.848Z,82.80
2023-09-10T01:15:27.790Z,83.55
2023-09-10T01:18:14.980Z,82.58
2023-09-10T01:21:09.707Z,82.89
2023-09-10T01:23:49.291Z,82.82
2023-09-10T01:26:15.968Z,82.45
2023-09-10T01:28:42.854Z,82.19
2023-09-10T01:31:09.692Z,82.04
2023-09-10T01:33:43.111Z,81.83
2023-09-10T01:36:16.248Z,82.35
2023-09-10T01:38:55.314Z,82.45
2023-09-10T01:41:22.683Z,83.21
2023-09-10T01:43:51.677Z,82.67
2023-09-10T01:46:20.378Z,83.68
2023-09-10T01:48:48.094Z,83.80
2023-09-10T01:51:14.683Z,82.99
2023-09-10T01:53:41.403Z,82.66
2023-09-10T01:56:08.307Z,82.77
2023-09-10T01:58:35.373Z,82.56
2023-09-10T02:01:02.149Z,82.93
2023-09-10T02:03:29.167Z,82.92
2023-09-10T02:05:59.023Z,82.22
2023-09-10T02:08:26.118Z,83.07
2023-09-10T02:10:52.895Z,82.97
2023-09-10T02:13:19.661Z,83.32
2023-09-10T02:15:46.584Z,82.90
2023-09-10T02:18:13.391Z,82.47
2023-09-10T02:20:40.162Z,82.94
2023-09-10T02:23:07.076Z,83.07
2023-09-10T02:25:34.358Z,83.44
2023-09-10T02:28:02.540Z,83.18
2023-09-10T02:30:29.296Z,83.14
2023-09-10T02:32:56.825Z,82.78
2023-09-10T02:35:24.416Z,82.44
2023-09-10T02:37:51.234Z,83.02
2023-09-10T02:40:18.085Z,83.00
2023-09-10T02:42:44.840Z,82.73
2023-09-10T02:45:12.942Z,82.32
2023-09-10T02:47:40.049Z,83.10
2023-09-10T02:50:07.165Z,83.27
2023-09-10T02:52:33.888Z,82.92
2023-09-10T02:55:00.934Z,82.58
2023-09-10T02:57:27.721Z,82.90
2023-09-10T02:59:54.415Z,83.47
2023-09-10T03:02:21.231Z,83.43
2023-09-10T03:04:48.155Z,83.05
2023-09-10T03:07:15.075Z,82.89
2023-09-10T03:09:41.794Z,81.94
2023-09-10T03:12:21.059Z,81.94
2023-09-10T03:14:47.804Z,81.52
2023-09-10T03:17:14.792Z,81.83
2023-09-10T03:19:42.029Z,81.55
2023-09-10T03:22:08.778Z,81.46
2023-09-10T03:24:36.194Z,82.13
2023-09-10T03:27:03.194Z,82.56
2023-09-10T03:29:31.556Z,82.82
2023-09-10T03:31:58.317Z,82.69
2023-09-10T03:34:25.089Z,82.82
2023-09-10T03:36:51.784Z,83.08
2023-09-10T03:39:18.565Z,82.16
2023-09-10T03:41:46.478Z,81.33
2023-09-10T03:44:13.326Z,80.93
2023-09-10T03:46:40.209Z,81.29
2023-09-10T03:49:07.013Z,82.00
2023-09-10T03:51:33.781Z,81.82
2023-09-10T03:54:00.508Z,80.80
2023-09-10T03:56:27.297Z,81.53
2023-09-10T03:58:54.057Z,81.88
2023-09-10T04:01:20.843Z,83.39
2023-09-10T04:03:47.654Z,80.51
2023-09-10T04:06:14.422Z,82.46
2023-09-10T04:08:41.231Z,83.40
2023-09-10T04:11:10.236Z,84.37
2023-09-10T04:13:38.386Z,84.73
2023-09-10T04:16:05.084Z,84.77
2023-09-10T04:18:31.866Z,84.39
2023-09-10T04:20:58.639Z,84.43
2023-09-10T04:23:25.437Z,83.33
2023-09-10T04:25:52.250Z,82.81
2023-09-10T04:28:19.064Z,80.91
2023-09-10T04:30:45.816Z,80.20
2023-09-10T04:33:13.221Z,78.67
2023-09-10T04:35:48.672Z,79.97
2023-09-10T04:38:15.414Z,80.06
2023-09-10T04:40:43.262Z,81.36
2023-09-10T04:43:10.081Z,80.60
2023-09-10T04:45:37.391Z,80.04
2023-09-10T04:48:05.464Z,80.36
2023-09-10T04:50:32.635Z,80.60
2023-09-10T04:53:02.013Z,80.25
2023-09-10T04:55:28.720Z,80.82
2023-09-10T04:57:55.430Z,80.60
2023-09-10T05:00:22.399Z,80.14
2023-09-10T05:02:49.271Z,79.89
2023-09-10T05:05:16.315Z,80.06
2023-09-10T05:07:43.116Z,80.30
2023-09-10T05:10:11.770Z,80.10
2023-09-10T05:12:38.445Z,80.78
2023-09-10T05:15:05.713Z,81.72
2023-09-10T05:17:32.498Z,82.75
2023-09-10T05:19:59.325Z,83.89
2023-09-10T05:22:26.072Z,84.31
2023-09-10T05:24:52.890Z,85.29
2023-09-10T05:27:19.577Z,84.86
2023-09-10T05:29:46.288Z,84.38
2023-09-10T05:32:13.119Z,84.62
2023-09-10T05:34:39.961Z,85.25
2023-09-10T05:37:06.709Z,87.43
2023-09-10T05:39:34.536Z,83.53
2023-09-10T05:42:01.313Z,82.95
2023-09-10T05:44:28.017Z,79.83
2023-09-10T05:46:54.811Z,79.17
2023-09-10T05:49:21.559Z,77.69
2023-09-10T05:51:48.280Z,75.59
2023-09-10T05:54:17.537Z,74.82
2023-09-10T05:56:44.626Z,74.10
2023-09-10T05:59:11.392Z,73.09
2023-09-10T06:01:38.191Z,72.86
2023-09-10T06:04:05.265Z,74.74
2023-09-10T06:06:32.103Z,71.53
2023-09-10T06:08:58.927Z,72.13
2023-09-10T06:11:25.803Z,70.39
2023-09-10T06:13:52.554Z,68.74
2023-09-10T06:16:19.369Z,70.30
2023-09-10T06:18:48.971Z,72.63
2023-09-10T06:21:15.708Z,69.90
2023-09-10T06:23:42.457Z,69.79
2023-09-10T06:26:09.245Z,68.24
2023-09-10T06:28:36.267Z,68.74
2023-09-10T06:31:03.009Z,66.58
2023-09-10T06:33:29.774Z,68.34
2023-09-10T06:35:56.867Z,67.91
2023-09-10T06:38:23.784Z,66.55
2023-09-10T06:40:52.442Z,68.41
2023-09-10T06:43:19.289Z,66.74
2023-09-10T06:45:46.117Z,66.49
2023-09-10T06:48:12.919Z,65.59
2023-09-10T06:50:39.679Z,64.35
2023-09-10T06:53:06.397Z,64.84
2023-09-10T06:55:33.092Z,64.23
2023-09-10T06:57:59.796Z,65.89
2023-09-10T07:00:26.593Z,67.31
2023-09-10T07:02:53.416Z,68.08
2023-09-10T07:05:20.401Z,67.90
2023-09-10T07:07:47.318Z,68.35
2023-09-10T07:10:14.088Z,66.97
2023-09-10T07:12:40.742Z,66.83
2023-09-10T07:15:07.837Z,65.18
2023-09-10T07:17:34.690Z,64.34
2023-09-10T07:20:01.424Z,64.63
2023-09-10T07:22:28.167Z,62.62
2023-09-10T07:24:54.840Z,63.36
2023-09-10T07:27:21.573Z,60.81
2023-09-10T07:29:49.629Z,60.15
2023-09-10T07:32:16.336Z,60.40
2023-09-10T07:34:43.061Z,59.99
2023-09-10T07:37:11.214Z,60.83
2023-09-10T07:39:39.110Z,60.46
2023-09-10T07:42:05.879Z,60.42
2023-09-10T07:44:32.713Z,58.89
2023-09-10T07:46:59.543Z,56.95
2023-09-10T07:49:26.279Z,57.81
2023-09-10T07:51:52.983Z,55.66
2023-09-10T07:54:19.788Z,54.64
2023-09-10T07:56:47.112Z,54.75
2023-09-10T07:59:13.927Z,54.61
2023-09-10T08:01:40.632Z,54.21
2023-09-10T08:04:07.684Z,52.25
2023-09-10T08:06:34.433Z,53.06
2023-09-10T08:09:01.140Z,53.07
2023-09-10T08:11:28.139Z,54.17
2023-09-10T08:13:54.885Z,53.67
2023-09-10T08:16:21.798Z,54.43
2023-09-10T08:18:48.641Z,51.39
2023-09-10T08:21:15.394Z,51.92
2023-09-10T08:23:43.892Z,52.49
2023-09-10T08:26:10.799Z,50.69
2023-09-10T08:28:37.822Z,50.52
2023-09-10T08:31:05.534Z,48.58
2023-09-10T08:33:35.643Z,51.20
2023-09-10T08:36:02.430Z,50.70
2023-09-10T08:38:29.224Z,50.58
2023-09-10T08:41:05.871Z,48.08
2023-09-10T08:43:57.095Z,48.82
2023-09-10T08:46:31.523Z,48.45
2023-09-10T08:49:00.092Z,48.73
2023-09-10T08:51:28.638Z,45.97
2023-09-10T08:53:58.361Z,47.46
2023-09-10T08:56:26.919Z,45.32
2023-09-10T08:58:55.174Z,47.12
2023-09-10T09:01:24.992Z,47.71
2023-09-10T09:03:57.847Z,45.30
2023-09-10T09:06:29.828Z,46.98
2023-09-10T09:08:58.352Z,47.78
2023-09-10T09:11:26.544Z,46.31
2023-09-10T09:13:55.330Z,46.12
2023-09-10T09:16:22.135Z,44.57
2023-09-10T09:18:50.067Z,45.02
2023-09-10T09:21:22.100Z,46.46
2023-09-10T09:24:02.831Z,44.20
2023-09-10T09:26:30.504Z,45.62
2023-09-10T09:28:57.758Z,47.49
2023-09-10T09:31:25.758Z,45.21
2023-09-10T09:33:53.355Z,45.54
2023-09-10T09:36:20.122Z,45.15
2023-09-10T09:38:48.999Z,46.43
2023-09-10T09:41:16.684Z,46.28
2023-09-10T09:43:44.210Z,47.35
2023-09-10T09:46:11.235Z,46.87
2023-09-10T09:48:39.285Z,47.25
2023-09-10T09:51:07.157Z,46.68
2023-09-10T09:53:35.184Z,45.82
2023-09-10T09:56:06.739Z,46.44
2023-09-10T09:58:34.632Z,46.10
2023-09-10T10:01:02.266Z,45.61
2023-09-10T10:03:34.891Z,45.81
2023-09-10T10:06:03.160Z,45.55
2023-09-10T10:08:30.959Z,47.38
2023-09-10T10:10:58.306Z,44.88
2023-09-10T10:13:25.685Z,45.31
2023-09-10T10:15:55.181Z,44.81
2023-09-10T10:18:23.631Z,44.18
2023-09-10T10:20:51.343Z,44.96
2023-09-10T10:23:26.194Z,45.50
2023-09-10T10:25:54.662Z,44.41
2023-09-10T10:28:22.134Z,43.28
2023-09-10T10:31:05.997Z,43.24
2023-09-10T10:33:35.114Z,44.37
2023-09-10T10:36:11.551Z,44.16
2023-09-10T10:38:44.505Z,43.44
2023-09-10T10:41:17.913Z,44.84
2023-09-10T10:44:11.676Z,42.31
2023-09-10T10:46:41.406Z,44.74
2023-09-10T10:49:08.964Z,43.63
2023-09-10T10:51:55.321Z,42.96
2023-09-10T10:54:24.176Z,43.86
2023-09-10T10:56:51.340Z,43.36
2023-09-10T10:59:19.197Z,43.83
2023-09-10T11:02:11.580Z,43.49
2023-09-10T11:04:38.489Z,44.79
2023-09-10T11:07:21.523Z,43.16
2023-09-10T11:09:49.157Z,44.62
2023-09-10T11:12:17.001Z,43.35
2023-09-10T11:15:01.827Z,43.85
2023-09-10T11:17:30.533Z,41.72
2023-09-10T11:19:57.495Z,43.99
2023-09-10T11:22:24.314Z,42.82
2023-09-10T11:25:08.081Z,42.11
2023-09-10T11:27:35.686Z,42.04
2023-09-10T11:30:06.745Z,43.02
2023-09-10T11:32:33.753Z,44.51
2023-09-10T11:35:18.961Z,42.81
2023-09-10T11:37:53.086Z,43.81
2023-09-10T11:40:21.179Z,44.58
2023-09-10T11:42:49.552Z,44.26
2023-09-10T11:45:17.531Z,44.41
2023-09-10T11:47:51.675Z,44.73
2023-09-10T11:50:24.957Z,44.14
2023-09-10T11:55:19.877Z,44.03
2023-09-10T11:57:47.840Z,45.77
2023-09-10T12:00:17.476Z,44.64
2023-09-10T12:02:44.994Z,44.56
2023-09-10T12:05:12.235Z,45.75
2023-09-10T12:07:44.468Z,46.50
2023-09-10T12:12:39.022Z,44.01
2023-09-10T12:15:06.122Z,45.14
2023-09-10T12:17:34.132Z,43.69
2023-09-10T12:20:01.245Z,44.55
2023-09-10T12:22:28.029Z,43.99
2023-09-10T12:24:54.869Z,45.08
2023-09-10T12:27:22.980Z,44.97
2023-09-10T12:29:52.038Z,43.80
2023-09-10T12:32:18.808Z,44.24
2023-09-10T12:34:45.855Z,44.15
2023-09-10T12:37:19.348Z,43.01
2023-09-10T12:39:46.547Z,44.87
2023-09-10T12:42:15.618Z,44.33
2023-09-10T12:44:42.471Z,43.44
2023-09-10T12:47:13.893Z,43.45
2023-09-10T12:49:41.809Z,46.12
2023-09-10T12:52:08.764Z,46.18
2023-09-10T12:54:36.063Z,45.80
2023-09-10T12:57:06.170Z,45.29
2023-09-10T12:59:33.114Z,45.55
2023-09-10T13:02:03.410Z,45.96
2023-09-10T13:04:30.175Z,45.75
2023-09-10T13:06:56.989Z,45.33
2023-09-10T13:09:23.708Z,44.81
2023-09-10T13:11:50.396Z,46.03
2023-09-10T13:14:18.695Z,45.60
2023-09-10T13:16:45.480Z,45.69
2023-09-10T13:19:12.424Z,46.21
2023-09-10T13:21:39.325Z,45.96
2023-09-10T13:24:06.455Z,45.48
2023-09-10T13:26:33.208Z,45.58
2023-09-10T13:28:59.946Z,45.71
2023-09-10T13:31:27.318Z,46.03
2023-09-10T13:33:54.082Z,46.28
2023-09-10T13:36:20.863Z,48.05
2023-09-10T13:38:48.833Z,47.46
2023-09-10T13:41:15.931Z,47.20
2023-09-10T13:43:43.169Z,47.22
2023-09-10T13:46:10.236Z,47.96
2023-09-10T13:48:37.112Z,49.87
2023-09-10T13:51:04.010Z,49.85
2023-09-10T13:53:30.888Z,48.01
2023-09-10T13:55:57.753Z,48.32
2023-09-10T13:58:24.497Z,47.85
2023-09-10T14:00:51.191Z,47.38
2023-09-10T14:03:17.987Z,47.42
2023-09-10T14:05:44.897Z,48.67
2023-09-10T14:08:11.822Z,49.89
2023-09-10T14:10:38.706Z,49.75
2023-09-10T14:13:05.452Z,50.21
2023-09-10T14:15:32.267Z,49.46
2023-09-10T14:17:59.043Z,50.04
2023-09-10T14:20:25.951Z,50.55
2023-09-10T14:22:53.578Z,50.71
2023-09-10T14:25:20.535Z,50.14
2023-09-10T14:27:47.881Z,50.34
2023-09-10T14:30:16.046Z,51.42
2023-09-10T14:32:43.119Z,51.03
2023-09-10T14:35:10.210Z,51.87
2023-09-10T14:37:36.990Z,51.25
2023-09-10T14:40:07.339Z,50.91
2023-09-10T14:42:35.346Z,51.61
2023-09-10T14:45:02.087Z,51.33
2023-09-10T14:47:28.895Z,51.54
2023-09-10T14:49:55.634Z,50.94
2023-09-10T14:52:22.566Z,52.18
2023-09-10T14:54:49.468Z,52.23
2023-09-10T14:57:16.198Z,52.06
2023-09-10T14:59:42.910Z,52.29
2023-09-10T15:02:10.192Z,51.00
2023-09-10T15:04:36.897Z,51.04
2023-09-10T15:07:03.757Z,51.76
2023-09-10T15:09:30.617Z,52.71
2023-09-10T15:11:57.328Z,53.29
2023-09-10T15:14:24.196Z,53.40
2023-09-10T15:16:50.978Z,53.31
2023-09-10T15:19:18.163Z,52.74
2023-09-10T15:21:44.992Z,53.25
2023-09-10T15:24:11.782Z,53.69
2023-09-10T15:26:38.550Z,54.24
2023-09-10T15:29:05.426Z,53.52
2023-09-10T15:31:36.404Z,53.43
2023-09-10T15:34:04.094Z,54.34
2023-09-10T15:36:31.033Z,54.03
2023-09-10T15:38:57.753Z,54.97
2023-09-10T15:41:25.149Z,54.97
2023-09-10T15:43:52.318Z,54.84
2023-09-10T15:46:19.121Z,55.19
2023-09-10T15:48:45.805Z,56.10
2023-09-10T15:51:12.539Z,56.36
2023-09-10T15:53:39.785Z,56.57
2023-09-10T15:56:06.766Z,57.13
2023-09-10T15:58:35.635Z,57.61
2023-09-10T16:01:02.505Z,58.07
2023-09-10T16:03:29.333Z,57.89
2023-09-10T16:05:57.772Z,58.60
2023-09-10T16:08:28.613Z,58.84
2023-09-10T16:10:58.256Z,59.25
2023-09-10T16:13:26.716Z,59.72
2023-09-10T16:15:53.567Z,60.08
2023-09-10T16:18:20.358Z,59.42
2023-09-10T16:20:47.286Z,59.86
2023-09-10T16:23:14.099Z,59.80
2023-09-10T16:25:40.821Z,60.28
2023-09-10T16:28:07.605Z,60.37
2023-09-10T16:30:35.512Z,61.01
2023-09-10T16:33:02.316Z,61.69
2023-09-10T16:35:29.122Z,61.72
2023-09-10T16:37:55.924Z,61.94
2023-09-10T16:40:22.783Z,61.79
2023-09-10T16:42:49.611Z,61.93
2023-09-10T16:45:16.637Z,61.97
2023-09-10T16:47:43.364Z,62.12
2023-09-10T16:50:11.817Z,62.60
2023-09-10T16:52:38.620Z,63.23
2023-09-10T16:55:05.522Z,63.42
2023-09-10T16:57:32.344Z,63.43
2023-09-10T16:59:59.064Z,64.52
2023-09-10T17:02:25.902Z,64.51
2023-09-10T17:04:52.758Z,64.81
2023-09-10T17:07:19.552Z,65.39
2023-09-10T17:09:46.393Z,65.21
2023-09-10T17:12:13.255Z,65.71
2023-09-10T17:14:40.065Z,65.96
2023-09-10T17:17:06.867Z,66.15
2023-09-10T17:19:34.519Z,66.30
2023-09-10T17:22:01.212Z,66.83
2023-09-10T17:24:29.850Z,66.89
2023-09-10T17:26:56.562Z,66.81
2023-09-10T17:29:23.388Z,67.15
2023-09-10T17:31:51.336Z,67.40
2023-09-10T17:34:18.094Z,67.96
2023-09-10T17:36:44.867Z,68.36
2023-09-10T17:39:11.630Z,68.40
2023-09-10T17:41:38.447Z,68.28
2023-09-10T17:44:05.292Z,68.70
2023-09-10T17:46:33.488Z,69.35
2023-09-10T17:49:00.315Z,69.22
2023-09-10T17:51:27.981Z,69.32
2023-09-10T17:53:54.615Z,69.25
2023-09-10T17:56:21.501Z,69.58
2023-09-10T17:58:48.275Z,69.54
2023-09-10T18:01:15.128Z,69.52
2023-09-10T18:03:44.172Z,69.58
2023-09-10T18:06:11.206Z,70.23
2023-09-10T18:08:37.919Z,70.23
2023-09-10T18:11:04.849Z,70.36
2023-09-10T18:13:31.787Z,70.39
2023-09-10T18:15:58.503Z,70.82
2023-09-10T18:18:25.823Z,70.68
2023-09-10T18:20:52.661Z,71.13
2023-09-10T18:23:19.449Z,71.12
2023-09-10T18:25:46.409Z,71.23
2023-09-10T18:28:13.115Z,71.35
2023-09-10T18:30:40.933Z,71.63
2023-09-10T18:33:09.851Z,71.70
2023-09-10T18:35:37.598Z,72.19
2023-09-10T18:38:04.650Z,72.75
2023-09-10T18:40:31.826Z,72.61
2023-09-10T18:42:58.920Z,72.76
2023-09-10T18:45:27.990Z,72.55
2023-09-10T18:47:54.788Z,72.83
2023-09-10T18:50:21.702Z,72.74
2023-09-10T18:52:50.556Z,72.75
2023-09-10T18:55:17.525Z,72.36
2023-09-10T18:57:44.286Z,72.39
2023-09-10T19:00:11.552Z,72.10
2023-09-10T19:02:39.925Z,72.17
2023-09-10T19:05:07.247Z,71.60
2023-09-10T19:07:34.050Z,72.10
2023-09-10T19:10:01.331Z,71.99
2023-09-10T19:12:28.164Z,71.91
2023-09-10T19:14:54.948Z,71.83
2023-09-10T19:17:21.697Z,72.15
2023-09-10T19:19:48.810Z,72.37
2023-09-10T19:22:15.520Z,72.22
2023-09-10T19:24:42.331Z,72.46
2023-09-10T19:27:09.105Z,72.69
2023-09-10T19:29:35.902Z,72.72
2023-09-10T19:32:03.791Z,73.13
2023-09-10T19:34:30.542Z,73.12
2023-09-10T19:36:58.498Z,73.57
2023-09-10T19:39:29.085Z,74.15
2023-09-10T19:41:58.406Z,73.85
2023-09-10T19:44:25.260Z,74.48
2023-09-10T19:46:52.118Z,74.73
2023-09-10T19:49:19.018Z,74.78
2023-09-10T19:51:49.838Z,75.03
2023-09-10T19:54:16.534Z,74.84
2023-09-10T19:56:43.331Z,74.80
2023-09-10T19:59:14.162Z,74.53
2023-09-10T20:01:43.871Z,74.78
2023-09-10T20:04:11.865Z,74.30
2023-09-10T20:06:40.325Z,74.13
2023-09-10T20:09:10.882Z,73.74
2023-09-10T20:11:38.892Z,74.27
2023-09-10T20:14:07.484Z,74.25
2023-09-10T20:16:36.001Z,74.00
2023-09-10T20:19:02.907Z,74.24
2023-09-10T20:21:29.860Z,73.76
2023-09-10T20:23:56.690Z,74.03
2023-09-10T20:26:26.611Z,74.15
2023-09-10T20:28:56.530Z,74.45
2023-09-10T20:31:23.394Z,74.35
2023-09-10T20:33:50.393Z,74.49
2023-09-10T20:36:17.269Z,74.52
2023-09-10T20:38:44.181Z,74.84
2023-09-10T20:41:14.459Z,74.72
2023-09-10T20:43:41.723Z,74.66
2023-09-10T20:46:09.268Z,74.75
2023-09-10T20:48:36.090Z,74.99
2023-09-10T20:51:05.293Z,75.29
2023-09-10T20:53:32.812Z,75.22
2023-09-10T20:55:59.719Z,75.37
2023-09-10T20:58:26.510Z,75.10
2023-09-10T21:00:53.902Z,74.77
2023-09-10T21:03:28.632Z,74.99
2023-09-10T21:06:07.460Z,75.09
2023-09-10T21:08:34.375Z,74.99
2023-09-10T21:11:05.265Z,75.10
2023-09-10T21:13:32.031Z,75.55
2023-09-10T21:15:58.770Z,75.09
2023-09-10T21:18:25.544Z,76.03
2023-09-10T21:20:53.138Z,76.18
2023-09-10T21:23:19.882Z,76.28
2023-09-10T21:25:46.697Z,76.73
2023-09-10T21:28:13.467Z,76.41
2023-09-10T21:30:40.251Z,76.31
2023-09-10T21:33:07.135Z,77.39
2023-09-10T21:35:34.142Z,77.50
2023-09-10T21:38:01.045Z,77.92
2023-09-10T21:40:27.736Z,77.82
2023-09-10T21:42:54.506Z,77.70
2023-09-10T21:45:21.245Z,77.15
2023-09-10T21:47:47.999Z,76.78
2023-09-10T21:50:14.950Z,77.17
2023-09-10T21:52:41.753Z,77.52
2023-09-10T21:55:09.080Z,77.26
2023-09-10T21:57:35.883Z,77.90
2023-09-10T22:00:04.268Z,77.45
2023-09-10T22:02:31.274Z,77.42
2023-09-10T22:04:59.254Z,77.73
2023-09-10T22:07:26.333Z,78.31
2023-09-10T22:09:55.118Z,78.35
2023-09-10T22:12:22.063Z,78.83
2023-09-10T22:14:48.896Z,78.29
2023-09-10T22:17:15.758Z,78.69
2023-09-10T22:19:43.189Z,79.32
2023-09-10T22:22:16.220Z,79.46
2023-09-10T22:24:45.389Z,79.57
2023-09-10T22:27:12.158Z,79.83
2023-09-10T22:29:39.537Z,80.13
2023-09-10T22:32:06.435Z,80.54
2023-09-10T22:34:33.947Z,80.44
2023-09-10T22:37:00.678Z,80.63
2023-09-10T22:39:27.403Z,80.59
2023-09-10T22:41:54.174Z,81.06
2023-09-10T22:44:20.964Z,81.50
2023-09-10T22:46:47.778Z,81.42
2023-09-10T22:49:14.507Z,81.78
2023-09-10T22:51:44.179Z,82.37
2023-09-10T22:54:11.358Z,82.98
2023-09-10T22:56:38.145Z,82.91
2023-09-10T22:59:04.893Z,82.62
2023-09-10T23:01:31.690Z,83.06
2023-09-10T23:03:58.571Z,83.10
2023-09-10T23:06:25.278Z,83.64
2023-09-10T23:08:52.017Z,83.46
2023-09-10T23:11:18.810Z,83.38
2023-09-10T23:13:45.613Z,83.26
2023-09-10T23:16:12.344Z,83.39
2023-09-10T23:18:39.354Z,82.85
2023-09-10T23:21:06.295Z,82.99
2023-09-10T23:23:33.079Z,82.73
2023-09-10T23:26:02.432Z,83.03
2023-09-10T23:28:29.418Z,82.91
2023-09-10T23:30:56.194Z,82.76
2023-09-10T23:33:22.971Z,83.18
2023-09-10T23:35:49.767Z,82.89
2023-09-10T23:38:16.556Z,82.92
2023-09-10T23:40:54.780Z,82.98
2023-09-10T23:43:21.622Z,83.28
2023-09-10T23:45:48.393Z,83.40
2023-09-10T23:48:18.660Z,82.78
2023-09-10T23:50:45.865Z,82.76
2023-09-10T23:53:13.228Z,83.28
2023-09-10T23:55:39.991Z,83.51
2023-09-10T23:58:07.703Z,84.24
